sensor_id;sensor_type;location;lat;lon;timestamp;P1;durP1;ratioP1;P2;durP2;ratioP2
34832;SDS011;55941;50.800;4.342;2023-02-08T00:02:23;35.35;;;15.77;;
34832;SDS011;55941;50.800;4.342;2023-02-08T00:04:49;38.30;;;15.90;;
34832;SDS011;55941;50.800;4.342;2023-02-08T00:07:15;28.83;;;16.15;;
34832;SDS011;55941;50.800;4.342;2023-02-08T00:09:41;32.92;;;15.77;;
34832;SDS011;55941;50.800;4.342;2023-02-08T00:12:08;37.28;;;16.70;;
34832;SDS011;55941;50.800;4.342;2023-02-08T00:14:34;36.38;;;17.17;;
34832;SDS011;55941;50.800;4.342;2023-02-08T00:17:00;29.00;;;16.85;;
34832;SDS011;55941;50.800;4.342;2023-02-08T00:19:26;39.28;;;16.38;;
34832;SDS011;55941;50.800;4.342;2023-02-08T00:21:52;36.17;;;16.77;;
34832;SDS011;55941;50.800;4.342;2023-02-08T00:24:19;35.88;;;15.82;;
34832;SDS011;55941;50.800;4.342;2023-02-08T00:26:45;35.85;;;16.75;;
34832;SDS011;55941;50.800;4.342;2023-02-08T00:29:13;37.10;;;16.45;;
34832;SDS011;55941;50.800;4.342;2023-02-08T00:31:39;31.35;;;16.02;;
34832;SDS011;55941;50.800;4.342;2023-02-08T00:34:05;33.95;;;15.88;;
34832;SDS011;55941;50.800;4.342;2023-02-08T00:36:31;30.90;;;15.50;;
34832;SDS011;55941;50.800;4.342;2023-02-08T00:38:57;30.95;;;15.80;;
34832;SDS011;55941;50.800;4.342;2023-02-08T00:41:23;34.92;;;16.33;;
34832;SDS011;55941;50.800;4.342;2023-02-08T00:43:49;36.05;;;16.13;;
34832;SDS011;55941;50.800;4.342;2023-02-08T00:46:16;32.28;;;16.00;;
34832;SDS011;55941;50.800;4.342;2023-02-08T00:48:42;27.27;;;16.85;;
34832;SDS011;55941;50.800;4.342;2023-02-08T00:51:09;31.38;;;16.70;;
34832;SDS011;55941;50.800;4.342;2023-02-08T00:53:40;24.27;;;15.32;;
34832;SDS011;55941;50.800;4.342;2023-02-08T00:56:09;24.00;;;15.88;;
34832;SDS011;55941;50.800;4.342;2023-02-08T00:58:36;29.27;;;15.40;;
34832;SDS011;55941;50.800;4.342;2023-02-08T01:01:03;26.30;;;15.43;;
34832;SDS011;55941;50.800;4.342;2023-02-08T01:03:31;28.98;;;14.57;;
34832;SDS011;55941;50.800;4.342;2023-02-08T01:05:59;26.17;;;14.93;;
34832;SDS011;55941;50.800;4.342;2023-02-08T01:08:26;30.50;;;14.98;;
34832;SDS011;55941;50.800;4.342;2023-02-08T01:10:53;31.55;;;15.18;;
34832;SDS011;55941;50.800;4.342;2023-02-08T01:13:26;24.83;;;15.45;;
34832;SDS011;55941;50.800;4.342;2023-02-08T01:15:52;25.92;;;15.63;;
34832;SDS011;55941;50.800;4.342;2023-02-08T01:18:18;29.75;;;15.32;;
34832;SDS011;55941;50.800;4.342;2023-02-08T01:20:44;28.23;;;15.55;;
34832;SDS011;55941;50.800;4.342;2023-02-08T01:23:11;25.77;;;15.48;;
34832;SDS011;55941;50.800;4.342;2023-02-08T01:25:37;30.45;;;16.10;;
34832;SDS011;55941;50.800;4.342;2023-02-08T01:28:03;28.10;;;16.10;;
34832;SDS011;55941;50.800;4.342;2023-02-08T01:30:29;26.65;;;15.65;;
34832;SDS011;55941;50.800;4.342;2023-02-08T01:32:55;30.38;;;16.35;;
34832;SDS011;55941;50.800;4.342;2023-02-08T01:35:21;25.30;;;15.07;;
34832;SDS011;55941;50.800;4.342;2023-02-08T01:37:48;29.20;;;15.60;;
34832;SDS011;55941;50.800;4.342;2023-02-08T01:40:14;26.80;;;15.48;;
34832;SDS011;55941;50.800;4.342;2023-02-08T01:42:40;29.33;;;16.33;;
34832;SDS011;55941;50.800;4.342;2023-02-08T01:47:46;29.88;;;14.98;;
34832;SDS011;55941;50.800;4.342;2023-02-08T01:50:17;27.73;;;15.82;;
34832;SDS011;55941;50.800;4.342;2023-02-08T01:52:45;31.88;;;16.10;;
34832;SDS011;55941;50.800;4.342;2023-02-08T01:55:15;26.20;;;16.23;;
34832;SDS011;55941;50.800;4.342;2023-02-08T01:57:46;28.17;;;15.93;;
34832;SDS011;55941;50.800;4.342;2023-02-08T02:00:17;27.55;;;15.73;;
34832;SDS011;55941;50.800;4.342;2023-02-08T02:02:47;25.02;;;15.75;;
34832;SDS011;55941;50.800;4.342;2023-02-08T02:05:25;27.65;;;14.82;;
34832;SDS011;55941;50.800;4.342;2023-02-08T02:07:56;34.15;;;14.68;;
34832;SDS011;55941;50.800;4.342;2023-02-08T02:10:30;28.27;;;14.45;;
34832;SDS011;55941;50.800;4.342;2023-02-08T02:13:01;28.67;;;15.40;;
34832;SDS011;55941;50.800;4.342;2023-02-08T02:15:32;28.30;;;15.80;;
34832;SDS011;55941;50.800;4.342;2023-02-08T02:17:59;28.83;;;15.55;;
34832;SDS011;55941;50.800;4.342;2023-02-08T02:21:01;28.35;;;15.05;;
34832;SDS011;55941;50.800;4.342;2023-02-08T02:29:18;31.95;;;15.85;;
34832;SDS011;55941;50.800;4.342;2023-02-08T02:32:12;28.83;;;14.85;;
34832;SDS011;55941;50.800;4.342;2023-02-08T02:34:51;26.35;;;14.57;;
34832;SDS011;55941;50.800;4.342;2023-02-08T02:51:31;28.05;;;15.27;;
34832;SDS011;55941;50.800;4.342;2023-02-08T02:55:12;25.27;;;15.23;;
34832;SDS011;55941;50.800;4.342;2023-02-08T02:57:17;30.67;;;14.50;;
34832;SDS011;55941;50.800;4.342;2023-02-08T02:59:50;27.65;;;15.05;;
34832;SDS011;55941;50.800;4.342;2023-02-08T03:02:16;26.77;;;14.80;;
34832;SDS011;55941;50.800;4.342;2023-02-08T03:04:47;22.05;;;14.40;;
34832;SDS011;55941;50.800;4.342;2023-02-08T03:15:18;28.27;;;14.23;;
34832;SDS011;55941;50.800;4.342;2023-02-08T03:17:59;25.05;;;14.88;;
34832;SDS011;55941;50.800;4.342;2023-02-08T03:23:08;22.50;;;11.07;;
34832;SDS011;55941;50.800;4.342;2023-02-08T03:28:34;26.55;;;14.73;;
34832;SDS011;55941;50.800;4.342;2023-02-08T03:36:47;27.40;;;14.18;;
34832;SDS011;55941;50.800;4.342;2023-02-08T03:39:21;28.58;;;15.27;;
34832;SDS011;55941;50.800;4.342;2023-02-08T03:41:51;29.38;;;14.30;;
34832;SDS011;55941;50.800;4.342;2023-02-08T03:44:35;23.92;;;14.43;;
34832;SDS011;55941;50.800;4.342;2023-02-08T03:47:10;26.48;;;14.68;;
34832;SDS011;55941;50.800;4.342;2023-02-08T03:49:41;30.50;;;15.18;;
34832;SDS011;55941;50.800;4.342;2023-02-08T03:52:09;32.80;;;15.13;;
34832;SDS011;55941;50.800;4.342;2023-02-08T03:54:38;23.25;;;14.73;;
34832;SDS011;55941;50.800;4.342;2023-02-08T03:57:22;29.88;;;15.30;;
34832;SDS011;55941;50.800;4.342;2023-02-08T03:59:56;25.20;;;15.20;;
34832;SDS011;55941;50.800;4.342;2023-02-08T04:02:32;25.48;;;14.38;;
34832;SDS011;55941;50.800;4.342;2023-02-08T04:05:02;20.05;;;13.45;;
34832;SDS011;55941;50.800;4.342;2023-02-08T04:07:31;22.45;;;13.95;;
34832;SDS011;55941;50.800;4.342;2023-02-08T04:09:57;26.73;;;15.05;;
34832;SDS011;55941;50.800;4.342;2023-02-08T04:12:23;26.80;;;14.05;;
34832;SDS011;55941;50.800;4.342;2023-02-08T04:14:53;29.63;;;14.98;;
34832;SDS011;55941;50.800;4.342;2023-02-08T04:17:22;30.45;;;14.55;;
34832;SDS011;55941;50.800;4.342;2023-02-08T04:19:48;23.90;;;13.75;;
34832;SDS011;55941;50.800;4.342;2023-02-08T04:22:14;29.52;;;15.35;;
34832;SDS011;55941;50.800;4.342;2023-02-08T04:24:40;27.95;;;14.45;;
34832;SDS011;55941;50.800;4.342;2023-02-08T04:27:06;26.75;;;14.70;;
34832;SDS011;55941;50.800;4.342;2023-02-08T04:29:32;31.38;;;14.57;;
34832;SDS011;55941;50.800;4.342;2023-02-08T04:32:00;28.52;;;15.05;;
34832;SDS011;55941;50.800;4.342;2023-02-08T04:34:27;26.67;;;14.73;;
34832;SDS011;55941;50.800;4.342;2023-02-08T04:36:53;30.02;;;15.35;;
34832;SDS011;55941;50.800;4.342;2023-02-08T04:39:20;31.45;;;15.52;;
34832;SDS011;55941;50.800;4.342;2023-02-08T04:41:48;41.45;;;16.27;;
34832;SDS011;55941;50.800;4.342;2023-02-08T04:44:14;31.27;;;15.23;;
34832;SDS011;55941;50.800;4.342;2023-02-08T04:46:40;35.22;;;15.95;;
34832;SDS011;55941;50.800;4.342;2023-02-08T04:49:07;30.98;;;15.77;;
34832;SDS011;55941;50.800;4.342;2023-02-08T04:51:35;31.48;;;16.05;;
34832;SDS011;55941;50.800;4.342;2023-02-08T04:54:02;26.98;;;14.52;;
34832;SDS011;55941;50.800;4.342;2023-02-08T04:56:29;35.90;;;15.40;;
34832;SDS011;55941;50.800;4.342;2023-02-08T04:58:55;36.50;;;15.65;;
34832;SDS011;55941;50.800;4.342;2023-02-08T05:01:22;31.10;;;15.10;;
34832;SDS011;55941;50.800;4.342;2023-02-08T05:03:49;34.78;;;14.98;;
34832;SDS011;55941;50.800;4.342;2023-02-08T05:06:15;33.17;;;14.73;;
34832;SDS011;55941;50.800;4.342;2023-02-08T05:08:41;37.75;;;15.82;;
34832;SDS011;55941;50.800;4.342;2023-02-08T05:11:07;38.08;;;14.48;;
34832;SDS011;55941;50.800;4.342;2023-02-08T05:13:33;32.45;;;15.27;;
34832;SDS011;55941;50.800;4.342;2023-02-08T05:15:59;27.70;;;13.95;;
34832;SDS011;55941;50.800;4.342;2023-02-08T05:18:25;31.02;;;15.02;;
34832;SDS011;55941;50.800;4.342;2023-02-08T05:20:55;31.20;;;15.35;;
34832;SDS011;55941;50.800;4.342;2023-02-08T05:23:23;29.35;;;14.65;;
34832;SDS011;55941;50.800;4.342;2023-02-08T05:25:49;27.40;;;14.25;;
34832;SDS011;55941;50.800;4.342;2023-02-08T05:28:15;40.35;;;15.55;;
34832;SDS011;55941;50.800;4.342;2023-02-08T05:30:41;28.90;;;14.85;;
34832;SDS011;55941;50.800;4.342;2023-02-08T05:33:07;30.23;;;15.30;;
34832;SDS011;55941;50.800;4.342;2023-02-08T05:35:33;37.92;;;15.23;;
34832;SDS011;55941;50.800;4.342;2023-02-08T05:38:00;35.38;;;14.77;;
34832;SDS011;55941;50.800;4.342;2023-02-08T05:40:27;37.05;;;13.07;;
34832;SDS011;55941;50.800;4.342;2023-02-08T05:42:53;27.20;;;14.40;;
34832;SDS011;55941;50.800;4.342;2023-02-08T05:45:20;32.30;;;14.15;;
34832;SDS011;55941;50.800;4.342;2023-02-08T05:47:46;34.28;;;15.95;;
34832;SDS011;55941;50.800;4.342;2023-02-08T05:50:12;34.60;;;15.13;;
34832;SDS011;55941;50.800;4.342;2023-02-08T05:52:38;28.40;;;14.70;;
34832;SDS011;55941;50.800;4.342;2023-02-08T05:55:05;33.28;;;14.60;;
34832;SDS011;55941;50.800;4.342;2023-02-08T05:57:34;34.40;;;15.30;;
34832;SDS011;55941;50.800;4.342;2023-02-08T05:59:59;36.47;;;14.98;;
34832;SDS011;55941;50.800;4.342;2023-02-08T06:02:25;39.40;;;15.70;;
34832;SDS011;55941;50.800;4.342;2023-02-08T06:04:54;31.40;;;13.38;;
34832;SDS011;55941;50.800;4.342;2023-02-08T06:07:20;24.23;;;13.75;;
34832;SDS011;55941;50.800;4.342;2023-02-08T06:09:46;27.30;;;14.60;;
34832;SDS011;55941;50.800;4.342;2023-02-08T06:12:12;29.75;;;13.32;;
34832;SDS011;55941;50.800;4.342;2023-02-08T06:14:39;41.05;;;14.07;;
34832;SDS011;55941;50.800;4.342;2023-02-08T06:17:05;28.90;;;14.30;;
34832;SDS011;55941;50.800;4.342;2023-02-08T06:19:31;31.13;;;14.18;;
34832;SDS011;55941;50.800;4.342;2023-02-08T06:21:58;44.03;;;14.07;;
34832;SDS011;55941;50.800;4.342;2023-02-08T06:24:24;34.72;;;14.00;;
34832;SDS011;55941;50.800;4.342;2023-02-08T06:26:50;58.88;;;14.15;;
34832;SDS011;55941;50.800;4.342;2023-02-08T06:29:16;45.38;;;15.00;;
34832;SDS011;55941;50.800;4.342;2023-02-08T06:31:42;34.80;;;13.95;;
34832;SDS011;55941;50.800;4.342;2023-02-08T06:34:08;40.15;;;14.43;;
34832;SDS011;55941;50.800;4.342;2023-02-08T06:36:34;55.08;;;14.65;;
34832;SDS011;55941;50.800;4.342;2023-02-08T06:39:00;52.88;;;13.90;;
34832;SDS011;55941;50.800;4.342;2023-02-08T06:41:28;44.22;;;13.20;;
34832;SDS011;55941;50.800;4.342;2023-02-08T06:43:54;29.00;;;12.95;;
34832;SDS011;55941;50.800;4.342;2023-02-08T06:46:23;39.45;;;13.55;;
34832;SDS011;55941;50.800;4.342;2023-02-08T06:48:49;28.70;;;13.10;;
34832;SDS011;55941;50.800;4.342;2023-02-08T06:51:15;33.05;;;12.48;;
34832;SDS011;55941;50.800;4.342;2023-02-08T06:53:42;33.75;;;12.57;;
34832;SDS011;55941;50.800;4.342;2023-02-08T06:56:12;34.70;;;12.45;;
34832;SDS011;55941;50.800;4.342;2023-02-08T06:58:38;28.73;;;12.20;;
34832;SDS011;55941;50.800;4.342;2023-02-08T07:01:10;27.38;;;12.23;;
34832;SDS011;55941;50.800;4.342;2023-02-08T07:03:37;30.33;;;12.02;;
34832;SDS011;55941;50.800;4.342;2023-02-08T07:06:03;37.75;;;13.35;;
34832;SDS011;55941;50.800;4.342;2023-02-08T07:08:33;29.80;;;12.95;;
34832;SDS011;55941;50.800;4.342;2023-02-08T07:10:59;33.50;;;13.68;;
34832;SDS011;55941;50.800;4.342;2023-02-08T07:13:30;40.47;;;14.13;;
34832;SDS011;55941;50.800;4.342;2023-02-08T07:15:56;34.92;;;13.57;;
34832;SDS011;55941;50.800;4.342;2023-02-08T07:18:24;42.20;;;12.80;;
34832;SDS011;55941;50.800;4.342;2023-02-08T07:20:50;36.45;;;12.55;;
34832;SDS011;55941;50.800;4.342;2023-02-08T07:23:17;40.17;;;12.18;;
34832;SDS011;55941;50.800;4.342;2023-02-08T07:25:44;45.70;;;12.20;;
34832;SDS011;55941;50.800;4.342;2023-02-08T07:28:10;30.55;;;12.20;;
34832;SDS011;55941;50.800;4.342;2023-02-08T07:30:37;22.40;;;10.88;;
34832;SDS011;55941;50.800;4.342;2023-02-08T07:33:02;24.42;;;11.15;;
34832;SDS011;55941;50.800;4.342;2023-02-08T07:35:28;25.63;;;10.95;;
34832;SDS011;55941;50.800;4.342;2023-02-08T07:37:55;32.60;;;11.82;;
34832;SDS011;55941;50.800;4.342;2023-02-08T07:40:22;34.20;;;11.15;;
34832;SDS011;55941;50.800;4.342;2023-02-08T07:42:47;21.98;;;10.38;;
34832;SDS011;55941;50.800;4.342;2023-02-08T07:45:15;34.95;;;11.55;;
34832;SDS011;55941;50.800;4.342;2023-02-08T07:47:41;28.33;;;11.27;;
34832;SDS011;55941;50.800;4.342;2023-02-08T07:50:07;28.00;;;11.65;;
34832;SDS011;55941;50.800;4.342;2023-02-08T07:52:33;36.63;;;11.55;;
34832;SDS011;55941;50.800;4.342;2023-02-08T07:54:59;41.60;;;13.50;;
34832;SDS011;55941;50.800;4.342;2023-02-08T07:57:27;42.53;;;13.00;;
34832;SDS011;55941;50.800;4.342;2023-02-08T07:59:53;71.53;;;13.45;;
34832;SDS011;55941;50.800;4.342;2023-02-08T08:02:19;42.03;;;13.45;;
34832;SDS011;55941;50.800;4.342;2023-02-08T08:04:45;32.60;;;11.65;;
34832;SDS011;55941;50.800;4.342;2023-02-08T08:07:12;40.17;;;11.77;;
34832;SDS011;55941;50.800;4.342;2023-02-08T08:09:38;30.38;;;11.70;;
34832;SDS011;55941;50.800;4.342;2023-02-08T08:12:04;23.45;;;11.45;;
34832;SDS011;55941;50.800;4.342;2023-02-08T08:14:31;38.88;;;11.43;;
34832;SDS011;55941;50.800;4.342;2023-02-08T08:16:57;34.97;;;11.88;;
34832;SDS011;55941;50.800;4.342;2023-02-08T08:19:24;32.30;;;11.20;;
34832;SDS011;55941;50.800;4.342;2023-02-08T08:21:53;34.83;;;11.52;;
34832;SDS011;55941;50.800;4.342;2023-02-08T08:24:20;28.40;;;12.73;;
34832;SDS011;55941;50.800;4.342;2023-02-08T08:26:46;44.55;;;12.35;;
34832;SDS011;55941;50.800;4.342;2023-02-08T08:29:12;31.75;;;10.93;;
34832;SDS011;55941;50.800;4.342;2023-02-08T08:31:38;30.67;;;11.13;;
34832;SDS011;55941;50.800;4.342;2023-02-08T08:34:05;47.35;;;11.73;;
34832;SDS011;55941;50.800;4.342;2023-02-08T08:36:31;26.42;;;10.73;;
34832;SDS011;55941;50.800;4.342;2023-02-08T08:38:57;36.70;;;12.07;;
34832;SDS011;55941;50.800;4.342;2023-02-08T08:41:23;29.42;;;10.55;;
34832;SDS011;55941;50.800;4.342;2023-02-08T08:43:51;23.55;;;10.95;;
34832;SDS011;55941;50.800;4.342;2023-02-08T08:46:17;33.20;;;11.50;;
34832;SDS011;55941;50.800;4.342;2023-02-08T08:48:43;36.05;;;10.98;;
34832;SDS011;55941;50.800;4.342;2023-02-08T08:51:10;28.33;;;10.57;;
34832;SDS011;55941;50.800;4.342;2023-02-08T08:53:36;25.95;;;9.93;;
34832;SDS011;55941;50.800;4.342;2023-02-08T08:56:03;22.90;;;10.07;;
34832;SDS011;55941;50.800;4.342;2023-02-08T08:58:30;24.83;;;9.98;;
34832;SDS011;55941;50.800;4.342;2023-02-08T09:00:56;23.85;;;9.82;;
34832;SDS011;55941;50.800;4.342;2023-02-08T09:03:24;25.92;;;10.05;;
34832;SDS011;55941;50.800;4.342;2023-02-08T09:05:51;21.75;;;9.73;;
34832;SDS011;55941;50.800;4.342;2023-02-08T09:08:17;24.65;;;9.93;;
34832;SDS011;55941;50.800;4.342;2023-02-08T09:10:43;28.45;;;10.13;;
34832;SDS011;55941;50.800;4.342;2023-02-08T09:13:10;21.83;;;9.88;;
34832;SDS011;55941;50.800;4.342;2023-02-08T09:15:43;44.45;;;9.25;;
34832;SDS011;55941;50.800;4.342;2023-02-08T09:18:10;26.25;;;9.02;;
34832;SDS011;55941;50.800;4.342;2023-02-08T09:20:36;21.92;;;8.80;;
34832;SDS011;55941;50.800;4.342;2023-02-08T09:23:03;36.40;;;9.02;;
34832;SDS011;55941;50.800;4.342;2023-02-08T09:25:30;15.45;;;8.10;;
34832;SDS011;55941;50.800;4.342;2023-02-08T09:27:57;19.48;;;8.75;;
34832;SDS011;55941;50.800;4.342;2023-02-08T09:30:23;37.90;;;10.80;;
34832;SDS011;55941;50.800;4.342;2023-02-08T09:32:49;65.75;;;10.82;;
34832;SDS011;55941;50.800;4.342;2023-02-08T09:35:15;42.05;;;10.32;;
34832;SDS011;55941;50.800;4.342;2023-02-08T09:37:42;494.80;;;38.88;;
34832;SDS011;55941;50.800;4.342;2023-02-08T09:40:25;655.70;;;53.17;;
34832;SDS011;55941;50.800;4.342;2023-02-08T09:48:48;220.57;;;21.92;;
34832;SDS011;55941;50.800;4.342;2023-02-08T09:54:06;55.78;;;9.50;;
34832;SDS011;55941;50.800;4.342;2023-02-08T09:56:40;12.48;;;6.22;;
34832;SDS011;55941;50.800;4.342;2023-02-08T09:59:11;56.05;;;8.18;;
34832;SDS011;55941;50.800;4.342;2023-02-08T10:01:47;19.63;;;6.57;;
34832;SDS011;55941;50.800;4.342;2023-02-08T10:06:58;32.47;;;6.55;;
34832;SDS011;55941;50.800;4.342;2023-02-08T10:09:25;20.80;;;5.97;;
34832;SDS011;55941;50.800;4.342;2023-02-08T10:12:00;15.65;;;4.93;;
34832;SDS011;55941;50.800;4.342;2023-02-08T10:14:41;26.70;;;5.75;;
34832;SDS011;55941;50.800;4.342;2023-02-08T10:34:09;43.47;;;5.43;;
34832;SDS011;55941;50.800;4.342;2023-02-08T10:36:38;26.63;;;5.18;;
34832;SDS011;55941;50.800;4.342;2023-02-08T10:39:48;20.63;;;4.45;;
34832;SDS011;55941;50.800;4.342;2023-02-08T10:41:58;44.83;;;4.47;;
34832;SDS011;55941;50.800;4.342;2023-02-08T10:47:10;30.38;;;4.35;;
34832;SDS011;55941;50.800;4.342;2023-02-08T10:50:00;25.13;;;4.30;;
34832;SDS011;55941;50.800;4.342;2023-02-08T10:52:29;19.05;;;4.28;;
34832;SDS011;55941;50.800;4.342;2023-02-08T10:54:56;15.35;;;3.85;;
34832;SDS011;55941;50.800;4.342;2023-02-08T10:57:24;20.67;;;3.72;;
34832;SDS011;55941;50.800;4.342;2023-02-08T11:02:46;6.78;;;2.95;;
34832;SDS011;55941;50.800;4.342;2023-02-08T11:05:18;11.50;;;2.65;;
34832;SDS011;55941;50.800;4.342;2023-02-08T11:07:48;41.08;;;3.75;;
34832;SDS011;55941;50.800;4.342;2023-02-08T11:18:35;10.93;;;3.60;;
34832;SDS011;55941;50.800;4.342;2023-02-08T11:21:09;8.15;;;3.03;;
34832;SDS011;55941;50.800;4.342;2023-02-08T11:23:53;9.85;;;3.00;;
34832;SDS011;55941;50.800;4.342;2023-02-08T11:26:21;6.00;;;3.22;;
34832;SDS011;55941;50.800;4.342;2023-02-08T11:29:00;7.32;;;3.10;;
34832;SDS011;55941;50.800;4.342;2023-02-08T11:31:30;21.90;;;3.05;;
34832;SDS011;55941;50.800;4.342;2023-02-08T11:33:57;11.63;;;3.35;;
34832;SDS011;55941;50.800;4.342;2023-02-08T11:36:25;7.10;;;3.20;;
34832;SDS011;55941;50.800;4.342;2023-02-08T11:38:53;5.70;;;2.95;;
34832;SDS011;55941;50.800;4.342;2023-02-08T11:41:20;4.70;;;2.67;;
34832;SDS011;55941;50.800;4.342;2023-02-08T11:44:04;4.80;;;2.47;;
34832;SDS011;55941;50.800;4.342;2023-02-08T11:46:33;5.55;;;2.00;;
34832;SDS011;55941;50.800;4.342;2023-02-08T11:49:00;11.05;;;3.13;;
34832;SDS011;55941;50.800;4.342;2023-02-08T11:51:33;5.45;;;3.85;;
34832;SDS011;55941;50.800;4.342;2023-02-08T11:54:02;6.60;;;3.33;;
34832;SDS011;55941;50.800;4.342;2023-02-08T11:56:29;9.35;;;4.43;;
34832;SDS011;55941;50.800;4.342;2023-02-08T12:01:37;28.20;;;7.63;;
34832;SDS011;55941;50.800;4.342;2023-02-08T12:04:06;31.55;;;7.50;;
34832;SDS011;55941;50.800;4.342;2023-02-08T12:12:29;25.55;;;4.07;;
34832;SDS011;55941;50.800;4.342;2023-02-08T12:15:11;61.75;;;5.65;;
34832;SDS011;55941;50.800;4.342;2023-02-08T12:46:00;20.40;;;4.13;;
34832;SDS011;55941;50.800;4.342;2023-02-08T12:57:18;9.70;;;3.78;;
34832;SDS011;55941;50.800;4.342;2023-02-08T12:59:59;7.03;;;2.92;;
34832;SDS011;55941;50.800;4.342;2023-02-08T13:05:02;19.17;;;3.90;;
34832;SDS011;55941;50.800;4.342;2023-02-08T13:07:34;24.80;;;3.70;;
34832;SDS011;55941;50.800;4.342;2023-02-08T13:13:03;6.07;;;2.97;;
34832;SDS011;55941;50.800;4.342;2023-02-08T13:18:42;4.07;;;2.80;;
34832;SDS011;55941;50.800;4.342;2023-02-08T13:21:27;5.88;;;2.80;;
34832;SDS011;55941;50.800;4.342;2023-02-08T13:23:56;10.93;;;3.75;;
34832;SDS011;55941;50.800;4.342;2023-02-08T13:26:25;4.82;;;3.78;;
34832;SDS011;55941;50.800;4.342;2023-02-08T13:28:58;4.70;;;3.08;;
34832;SDS011;55941;50.800;4.342;2023-02-08T13:36:37;6.47;;;3.20;;
34832;SDS011;55941;50.800;4.342;2023-02-08T13:39:21;11.05;;;3.30;;
34832;SDS011;55941;50.800;4.342;2023-02-08T13:41:51;4.85;;;3.10;;
34832;SDS011;55941;50.800;4.342;2023-02-08T13:44:21;14.85;;;3.92;;
34832;SDS011;55941;50.800;4.342;2023-02-08T13:46:55;16.92;;;3.40;;
34832;SDS011;55941;50.800;4.342;2023-02-08T14:00:33;10.82;;;3.60;;
34832;SDS011;55941;50.800;4.342;2023-02-08T14:03:02;9.60;;;4.07;;
34832;SDS011;55941;50.800;4.342;2023-02-08T14:08:31;11.07;;;4.18;;
34832;SDS011;55941;50.800;4.342;2023-02-08T14:14:19;17.15;;;5.20;;
34832;SDS011;55941;50.800;4.342;2023-02-08T14:19:31;11.52;;;4.28;;
34832;SDS011;55941;50.800;4.342;2023-02-08T14:29:57;18.58;;;4.40;;
34832;SDS011;55941;50.800;4.342;2023-02-08T14:32:24;34.92;;;5.55;;
34832;SDS011;55941;50.800;4.342;2023-02-08T14:35:01;7.97;;;3.05;;
34832;SDS011;55941;50.800;4.342;2023-02-08T14:37:44;8.52;;;3.30;;
34832;SDS011;55941;50.800;4.342;2023-02-08T14:42:55;14.65;;;3.72;;
34832;SDS011;55941;50.800;4.342;2023-02-08T14:45:49;4.32;;;3.13;;
34832;SDS011;55941;50.800;4.342;2023-02-08T14:50:49;21.45;;;7.03;;
34832;SDS011;55941;50.800;4.342;2023-02-08T14:56:02;43.33;;;7.18;;
34832;SDS011;55941;50.800;4.342;2023-02-08T14:58:39;39.95;;;5.63;;
34832;SDS011;55941;50.800;4.342;2023-02-08T15:01:21;41.28;;;6.28;;
34832;SDS011;55941;50.800;4.342;2023-02-08T15:04:09;11.73;;;4.00;;
34832;SDS011;55941;50.800;4.342;2023-02-08T15:09:17;27.00;;;4.78;;
34832;SDS011;55941;50.800;4.342;2023-02-08T15:12:03;14.98;;;4.22;;
34832;SDS011;55941;50.800;4.342;2023-02-08T15:14:34;18.65;;;4.32;;
34832;SDS011;55941;50.800;4.342;2023-02-08T15:17:01;16.08;;;4.15;;
34832;SDS011;55941;50.800;4.342;2023-02-08T15:19:35;12.73;;;4.60;;
34832;SDS011;55941;50.800;4.342;2023-02-08T15:22:55;14.85;;;4.32;;
34832;SDS011;55941;50.800;4.342;2023-02-08T15:24:57;16.88;;;5.03;;
34832;SDS011;55941;50.800;4.342;2023-02-08T15:27:28;8.32;;;4.15;;
34832;SDS011;55941;50.800;4.342;2023-02-08T15:29:56;10.18;;;4.38;;
34832;SDS011;55941;50.800;4.342;2023-02-08T15:32:23;15.57;;;4.70;;
34832;SDS011;55941;50.800;4.342;2023-02-08T15:34:58;14.18;;;5.38;;
34832;SDS011;55941;50.800;4.342;2023-02-08T15:37:29;14.90;;;4.72;;
34832;SDS011;55941;50.800;4.342;2023-02-08T15:39:59;11.50;;;4.20;;
34832;SDS011;55941;50.800;4.342;2023-02-08T15:42:28;9.07;;;4.35;;
34832;SDS011;55941;50.800;4.342;2023-02-08T15:44:57;14.25;;;5.15;;
34832;SDS011;55941;50.800;4.342;2023-02-08T15:47:32;7.85;;;4.40;;
34832;SDS011;55941;50.800;4.342;2023-02-08T15:50:01;15.23;;;4.72;;
34832;SDS011;55941;50.800;4.342;2023-02-08T15:52:32;8.65;;;4.45;;
34832;SDS011;55941;50.800;4.342;2023-02-08T15:55:02;7.32;;;4.45;;
34832;SDS011;55941;50.800;4.342;2023-02-08T15:57:33;11.65;;;4.95;;
34832;SDS011;55941;50.800;4.342;2023-02-08T16:00:18;18.15;;;4.97;;
34832;SDS011;55941;50.800;4.342;2023-02-08T16:02:56;15.57;;;4.75;;
34832;SDS011;55941;50.800;4.342;2023-02-08T16:05:27;11.52;;;4.45;;
34832;SDS011;55941;50.800;4.342;2023-02-08T16:07:56;12.40;;;4.82;;
34832;SDS011;55941;50.800;4.342;2023-02-08T16:10:27;8.50;;;4.65;;
34832;SDS011;55941;50.800;4.342;2023-02-08T16:13:05;11.88;;;5.35;;
34832;SDS011;55941;50.800;4.342;2023-02-08T16:15:43;15.18;;;5.82;;
34832;SDS011;55941;50.800;4.342;2023-02-08T16:20:56;18.90;;;5.68;;
34832;SDS011;55941;50.800;4.342;2023-02-08T16:23:24;16.02;;;6.20;;
34832;SDS011;55941;50.800;4.342;2023-02-08T16:25:51;17.65;;;5.85;;
34832;SDS011;55941;50.800;4.342;2023-02-08T16:28:28;15.90;;;5.30;;
34832;SDS011;55941;50.800;4.342;2023-02-08T16:33:27;19.80;;;5.35;;
34832;SDS011;55941;50.800;4.342;2023-02-08T16:35:57;18.40;;;5.93;;
34832;SDS011;55941;50.800;4.342;2023-02-08T16:40:59;14.13;;;5.13;;
34832;SDS011;55941;50.800;4.342;2023-02-08T16:43:40;21.30;;;5.93;;
34832;SDS011;55941;50.800;4.342;2023-02-08T16:48:53;14.18;;;5.82;;
34832;SDS011;55941;50.800;4.342;2023-02-08T16:54:14;17.48;;;5.47;;
34832;SDS011;55941;50.800;4.342;2023-02-08T16:56:43;22.23;;;5.70;;
34832;SDS011;55941;50.800;4.342;2023-02-08T16:59:14;15.88;;;5.75;;
34832;SDS011;55941;50.800;4.342;2023-02-08T17:01:41;26.52;;;6.50;;
34832;SDS011;55941;50.800;4.342;2023-02-08T17:04:12;15.93;;;5.72;;
34832;SDS011;55941;50.800;4.342;2023-02-08T17:06:39;20.63;;;5.72;;
34832;SDS011;55941;50.800;4.342;2023-02-08T17:09:09;13.68;;;5.80;;
34832;SDS011;55941;50.800;4.342;2023-02-08T17:11:38;16.77;;;5.03;;
34832;SDS011;55941;50.800;4.342;2023-02-08T17:14:05;15.90;;;6.70;;
34832;SDS011;55941;50.800;4.342;2023-02-08T17:16:32;15.88;;;5.80;;
34832;SDS011;55941;50.800;4.342;2023-02-08T17:18:59;14.82;;;5.38;;
34832;SDS011;55941;50.800;4.342;2023-02-08T17:21:26;17.67;;;5.55;;
34832;SDS011;55941;50.800;4.342;2023-02-08T17:23:53;18.05;;;5.45;;
34832;SDS011;55941;50.800;4.342;2023-02-08T17:26:23;21.73;;;6.40;;
34832;SDS011;55941;50.800;4.342;2023-02-08T17:28:52;17.05;;;6.20;;
34832;SDS011;55941;50.800;4.342;2023-02-08T17:31:19;17.15;;;5.40;;
34832;SDS011;55941;50.800;4.342;2023-02-08T17:33:46;16.70;;;5.93;;
34832;SDS011;55941;50.800;4.342;2023-02-08T17:36:14;18.42;;;5.97;;
34832;SDS011;55941;50.800;4.342;2023-02-08T17:38:42;17.63;;;6.13;;
34832;SDS011;55941;50.800;4.342;2023-02-08T17:41:13;19.20;;;5.65;;
34832;SDS011;55941;50.800;4.342;2023-02-08T17:43:41;21.10;;;5.88;;
34832;SDS011;55941;50.800;4.342;2023-02-08T17:46:08;14.73;;;6.60;;
34832;SDS011;55941;50.800;4.342;2023-02-08T17:48:34;10.40;;;5.95;;
34832;SDS011;55941;50.800;4.342;2023-02-08T17:51:00;19.38;;;6.32;;
34832;SDS011;55941;50.800;4.342;2023-02-08T17:53:34;13.15;;;6.13;;
34832;SDS011;55941;50.800;4.342;2023-02-08T17:56:06;22.48;;;6.40;;
34832;SDS011;55941;50.800;4.342;2023-02-08T17:58:37;24.67;;;6.70;;